createdAt,value
2018-12-14T00:02:12.132Z,72.87
2018-12-14T00:04:40.875Z,72.81
2018-12-14T00:07:10.202Z,72.91
2018-12-14T00:09:39.893Z,72.64
2018-12-14T00:12:08.692Z,72.54
2018-12-14T00:14:37.528Z,72.47
2018-12-14T00:17:06.208Z,72.44
2018-12-14T00:19:34.895Z,72.35
2018-12-14T00:22:03.651Z,72.09
2018-12-14T00:24:32.437Z,72.30
2018-12-14T00:27:01.351Z,72.01
2018-12-14T00:29:30.220Z,72.08
2018-12-14T00:31:58.934Z,72.35
2018-12-14T00:34:27.725Z,72.46
2018-12-14T00:36:56.383Z,71.93
2018-12-14T00:39:26.040Z,71.95
2018-12-14T00:41:54.856Z,72.66
2018-12-14T00:44:23.553Z,72.70
2018-12-14T00:46:52.191Z,72.85
2018-12-14T00:49:20.930Z,72.69
2018-12-14T00:51:49.576Z,72.61
2018-12-14T00:54:18.263Z,72.89
2018-12-14T00:56:48.072Z,73.16
2018-12-14T00:59:18.397Z,72.49
2018-12-14T01:01:47.084Z,72.78
2018-12-14T01:04:15.890Z,72.91
2018-12-14T01:06:44.536Z,72.39
2018-12-14T01:09:13.175Z,72.47
2018-12-14T01:11:42.232Z,72.87
2018-12-14T01:14:10.873Z,73.27
2018-12-14T01:16:39.596Z,72.96
2018-12-14T01:19:08.683Z,72.92
2018-12-14T01:21:37.432Z,72.48
2018-12-14T01:24:06.239Z,72.98
2018-12-14T01:26:34.964Z,72.83
2018-12-14T01:29:03.593Z,73.21
2018-12-14T01:31:32.254Z,72.93
2018-12-14T01:34:00.983Z,73.07
2018-12-14T01:36:30.302Z,72.55
2018-12-14T01:39:00.284Z,72.82
2018-12-14T01:41:29.005Z,72.41
2018-12-14T01:43:57.657Z,73.07
2018-12-14T01:46:26.329Z,73.04
2018-12-14T01:48:55.192Z,72.64
2018-12-14T01:51:23.907Z,72.82
2018-12-14T01:53:52.541Z,72.57
2018-12-14T01:56:21.380Z,72.71
2018-12-14T01:58:50.015Z,73.29
2018-12-14T02:01:19.440Z,73.43
2018-12-14T02:03:48.234Z,73.17
2018-12-14T02:06:17.837Z,73.91
2018-12-14T02:08:46.545Z,73.17
2018-12-14T02:11:15.441Z,73.75
2018-12-14T02:13:44.337Z,73.57
2018-12-14T02:16:13.020Z,73.61
2018-12-14T02:18:41.696Z,73.71
2018-12-14T02:21:10.368Z,73.91
2018-12-14T02:23:39.076Z,73.57
2018-12-14T02:26:07.894Z,72.98
2018-12-14T02:28:36.577Z,73.69
2018-12-14T02:31:05.242Z,73.44
2018-12-14T02:33:33.896Z,73.04
2018-12-14T02:36:02.665Z,72.98
2018-12-14T02:38:31.507Z,73.35
2018-12-14T02:41:00.381Z,73.27
2018-12-14T02:43:29.169Z,73.25
2018-12-14T02:45:58.178Z,73.23
2018-12-14T02:48:26.869Z,73.15
2018-12-14T02:50:56.193Z,73.81
2018-12-14T02:53:24.909Z,73.34
2018-12-14T02:55:53.624Z,73.18
2018-12-14T02:58:22.265Z,73.24
2018-12-14T03:00:50.939Z,73.26
2018-12-14T03:03:19.728Z,72.54
2018-12-14T03:05:48.419Z,72.18
2018-12-14T03:08:17.308Z,72.17
2018-12-14T03:10:46.019Z,72.50
2018-12-14T03:13:14.705Z,71.88
2018-12-14T03:15:43.691Z,72.18
2018-12-14T03:18:13.612Z,73.19
2018-12-14T03:20:43.531Z,73.27
2018-12-14T03:23:12.206Z,72.97
2018-12-14T03:25:41.228Z,73.24
2018-12-14T03:28:09.888Z,73.09
2018-12-14T03:30:39.194Z,72.97
2018-12-14T03:33:09.498Z,72.66
2018-12-14T03:35:38.505Z,73.10
2018-12-14T03:38:07.186Z,73.02
2018-12-14T03:40:36.692Z,72.64
2018-12-14T03:43:05.668Z,72.83
2018-12-14T03:45:34.270Z,73.34
2018-12-14T03:48:04.504Z,73.61
2018-12-14T03:50:33.155Z,73.85
2018-12-14T03:53:01.776Z,73.88
2018-12-14T03:55:30.720Z,73.62
2018-12-14T03:57:59.960Z,74.55
2018-12-14T04:00:28.820Z,74.50
2018-12-14T04:02:58.016Z,74.47
2018-12-14T04:05:27.219Z,74.89
2018-12-14T04:07:56.316Z,74.99
2018-12-14T04:10:25.119Z,74.60
2018-12-14T04:12:53.743Z,75.08
2018-12-14T04:15:22.585Z,74.93
2018-12-14T04:17:51.556Z,75.01
2018-12-14T04:20:20.245Z,75.16
2018-12-14T04:22:49.109Z,74.88
2018-12-14T04:25:17.821Z,75.11
2018-12-14T04:27:46.505Z,74.63
2018-12-14T04:30:15.312Z,74.32
2018-12-14T04:32:44.083Z,74.08
2018-12-14T04:35:12.836Z,74.38
2018-12-14T04:37:41.530Z,73.67
2018-12-14T04:40:10.402Z,73.73
2018-12-14T04:42:39.489Z,74.12
2018-12-14T04:45:08.456Z,73.63
2018-12-14T04:47:37.341Z,73.96
2018-12-14T04:50:06.137Z,74.18
2018-12-14T04:52:34.856Z,73.62
2018-12-14T04:55:04.547Z,72.84
2018-12-14T04:57:33.336Z,72.82
2018-12-14T05:00:02.167Z,72.83
2018-12-14T05:02:32.732Z,72.64
2018-12-14T05:05:01.538Z,72.90
2018-12-14T05:07:30.297Z,72.66
2018-12-14T05:09:59.800Z,72.86
2018-12-14T05:12:28.503Z,72.56
2018-12-14T05:14:58.302Z,72.32
2018-12-14T05:17:29.042Z,72.52
2018-12-14T05:19:57.997Z,72.68
2018-12-14T05:22:26.787Z,72.72
2018-12-14T05:24:57.767Z,72.81
2018-12-14T05:27:26.502Z,72.13
2018-12-14T05:29:56.709Z,72.77
2018-12-14T05:32:26.702Z,72.50
2018-12-14T05:34:56.447Z,72.44
2018-12-14T05:37:25.329Z,72.16
2018-12-14T05:39:54.152Z,72.82
2018-12-14T05:42:23.933Z,72.48
2018-12-14T05:44:52.661Z,72.70
2018-12-14T05:47:21.491Z,72.43
2018-12-14T05:49:50.170Z,73.23
2018-12-14T05:52:18.841Z,73.32
2018-12-14T05:54:47.736Z,73.02
2018-12-14T05:57:16.565Z,72.67
2018-12-14T05:59:46.796Z,72.89
2018-12-14T06:02:15.809Z,73.03
2018-12-14T06:04:44.468Z,72.38
2018-12-14T06:07:13.104Z,72.86
2018-12-14T06:09:41.960Z,72.91
2018-12-14T06:12:10.885Z,72.63
2018-12-14T06:14:39.895Z,72.99
2018-12-14T06:17:09.289Z,72.14
2018-12-14T06:19:40.575Z,72.83
2018-12-14T06:24:51.488Z,72.85
2018-12-14T06:27:20.159Z,72.59
2018-12-14T06:29:50.170Z,72.71
2018-12-14T06:32:19.613Z,72.48
2018-12-14T06:34:48.251Z,72.56
2018-12-14T06:37:17.322Z,72.13
2018-12-14T06:39:46.207Z,72.26
2018-12-14T06:42:16.340Z,71.74
2018-12-14T06:44:45.056Z,72.89
2018-12-14T06:47:13.826Z,72.28
2018-12-14T06:49:42.498Z,72.16
2018-12-14T06:52:11.187Z,71.74
2018-12-14T06:54:40.616Z,71.56
2018-12-14T06:57:10.502Z,71.03
2018-12-14T06:59:41.620Z,70.82
2018-12-14T07:02:10.355Z,71.03
2018-12-14T07:04:39.153Z,71.28
2018-12-14T07:07:08.850Z,71.21
2018-12-14T07:09:37.804Z,71.16
2018-12-14T07:12:06.467Z,70.54
2018-12-14T07:14:35.154Z,70.66
2018-12-14T07:17:03.867Z,70.78
2018-12-14T07:19:32.705Z,70.56
2018-12-14T07:22:01.786Z,70.52
2018-12-14T07:24:30.938Z,70.94
2018-12-14T07:26:59.727Z,71.51
2018-12-14T07:29:28.444Z,71.71
2018-12-14T07:31:57.144Z,71.37
2018-12-14T07:34:26.605Z,71.07
2018-12-14T07:36:55.395Z,70.96
2018-12-14T07:39:24.205Z,71.24
2018-12-14T07:41:52.917Z,71.38
2018-12-14T07:44:21.695Z,71.77
2018-12-14T07:46:50.604Z,71.29
2018-12-14T07:49:19.260Z,71.35
2018-12-14T07:51:48.133Z,71.54
2018-12-14T07:54:16.783Z,71.72
2018-12-14T07:56:45.496Z,70.85
2018-12-14T07:59:14.945Z,70.80
2018-12-14T08:01:43.659Z,70.50
2018-12-14T08:04:12.484Z,71.29
2018-12-14T08:06:41.312Z,71.21
2018-12-14T08:09:10.058Z,70.24
2018-12-14T08:11:38.703Z,70.01
2018-12-14T08:14:07.491Z,69.98
2018-12-14T08:16:36.137Z,69.66
2018-12-14T08:19:06.327Z,68.64
2018-12-14T08:21:35.352Z,68.28
2018-12-14T08:24:04.275Z,68.72
2018-12-14T08:26:33.241Z,68.45
2018-12-14T08:29:02.135Z,68.50
2018-12-14T08:31:30.846Z,68.10
2018-12-14T08:33:59.481Z,68.49
2018-12-14T08:36:28.340Z,67.47
2018-12-14T08:38:57.074Z,67.18
2018-12-14T08:41:26.816Z,66.95
2018-12-14T08:43:55.674Z,67.40
2018-12-14T08:46:24.361Z,67.50
2018-12-14T08:48:53.052Z,67.34
2018-12-14T08:51:21.817Z,67.13
2018-12-14T08:53:50.550Z,67.46
2018-12-14T08:56:19.284Z,67.30
2018-12-14T08:58:48.131Z,67.09
2018-12-14T09:01:16.930Z,66.23
2018-12-14T09:03:45.584Z,66.42
2018-12-14T09:06:14.435Z,66.37
2018-12-14T09:08:43.260Z,66.80
2018-12-14T09:11:12.052Z,66.41
2018-12-14T09:13:47.707Z,66.63
2018-12-14T09:16:14.217Z,65.00
2018-12-14T09:18:44.243Z,63.60
2018-12-14T09:21:13.024Z,63.86
2018-12-14T09:23:43.152Z,64.09
2018-12-14T09:26:12.144Z,63.94
2018-12-14T09:28:41.328Z,63.82
2018-12-14T09:31:10.014Z,63.13
2018-12-14T09:33:38.826Z,62.81
2018-12-14T09:36:08.295Z,62.87
2018-12-14T09:38:37.033Z,62.08
2018-12-14T09:41:05.868Z,62.47
2018-12-14T09:43:34.691Z,61.69
2018-12-14T09:46:04.260Z,62.04
2018-12-14T09:48:33.100Z,62.04
2018-12-14T09:51:02.015Z,61.34
2018-12-14T09:53:30.804Z,62.79
2018-12-14T09:55:59.619Z,61.91
2018-12-14T09:58:28.450Z,62.31
2018-12-14T10:00:57.113Z,61.85
2018-12-14T10:03:27.195Z,62.27
2018-12-14T10:05:56.687Z,61.81
2018-12-14T10:08:25.524Z,61.75
2018-12-14T10:10:54.600Z,61.81
2018-12-14T10:13:23.644Z,61.92
2018-12-14T10:15:53.687Z,60.77
2018-12-14T10:18:22.820Z,61.23
2018-12-14T10:20:51.704Z,60.76
2018-12-14T10:23:20.439Z,60.90
2018-12-14T10:25:49.305Z,60.03
2018-12-14T10:28:18.044Z,59.32
2018-12-14T10:30:46.819Z,58.68
2018-12-14T10:33:15.902Z,58.92
2018-12-14T10:35:44.663Z,59.06
2018-12-14T10:38:13.356Z,58.91
2018-12-14T10:40:43.518Z,58.29
2018-12-14T10:43:12.201Z,57.97
2018-12-14T10:45:41.336Z,57.93
2018-12-14T10:48:10.128Z,57.34
2018-12-14T10:50:39.907Z,56.32
2018-12-14T10:53:13.397Z,57.69
2018-12-14T10:55:42.190Z,56.69
2018-12-14T10:58:11.026Z,56.88
2018-12-14T11:00:44.932Z,57.27
2018-12-14T11:03:13.871Z,57.39
2018-12-14T11:05:43.216Z,57.18
2018-12-14T11:08:12.069Z,57.14
2018-12-14T11:10:40.756Z,56.92
2018-12-14T11:13:09.585Z,57.18
2018-12-14T11:15:38.296Z,57.55
2018-12-14T11:18:07.122Z,57.88
2018-12-14T11:20:35.803Z,57.26
2018-12-14T11:23:04.699Z,57.12
2018-12-14T11:25:33.317Z,57.99
2018-12-14T11:28:02.051Z,57.78
2018-12-14T11:30:30.903Z,58.12
2018-12-14T11:32:59.796Z,58.17
2018-12-14T11:35:28.481Z,58.61
2018-12-14T11:37:57.486Z,58.92
2018-12-14T11:40:26.800Z,58.21
2018-12-14T11:42:55.494Z,58.79
2018-12-14T11:45:24.487Z,59.19
2018-12-14T11:47:53.173Z,58.80
2018-12-14T11:50:21.857Z,59.09
2018-12-14T11:52:50.713Z,58.93
2018-12-14T11:55:19.388Z,59.22
2018-12-14T11:57:48.174Z,58.98
2018-12-14T12:00:17.141Z,59.50
2018-12-14T12:02:45.868Z,59.05
2018-12-14T12:05:14.586Z,59.51
2018-12-14T12:07:44.397Z,59.72
2018-12-14T12:10:13.292Z,59.52
2018-12-14T12:12:42.131Z,59.66
2018-12-14T12:15:10.956Z,59.81
2018-12-14T12:17:40.518Z,59.85
2018-12-14T12:20:09.757Z,59.49
2018-12-14T12:22:38.560Z,59.75
2018-12-14T12:25:07.304Z,59.90
2018-12-14T12:27:36.061Z,59.99
2018-12-14T12:30:05.442Z,59.70
2018-12-14T12:32:35.014Z,60.01
2018-12-14T12:35:05.500Z,59.51
2018-12-14T12:37:35.038Z,59.50
2018-12-14T12:40:05.770Z,59.19
2018-12-14T12:42:35.786Z,59.51
2018-12-14T12:45:05.361Z,59.66
2018-12-14T12:47:34.605Z,59.82
2018-12-14T12:50:03.479Z,59.67
2018-12-14T12:52:32.315Z,60.05
2018-12-14T12:55:01.042Z,60.05
2018-12-14T12:57:29.849Z,59.76
2018-12-14T12:59:58.531Z,59.14
2018-12-14T13:02:27.218Z,59.44
2018-12-14T13:09:55.499Z,60.05
2018-12-14T13:12:25.040Z,59.84
2018-12-14T13:14:53.695Z,59.49
2018-12-14T13:17:22.483Z,59.84
2018-12-14T13:19:51.168Z,59.82
2018-12-14T13:22:19.887Z,59.87
2018-12-14T13:24:48.667Z,59.23
2018-12-14T13:27:20.499Z,59.39
2018-12-14T13:29:50.589Z,59.43
2018-12-14T13:32:20.209Z,59.21
2018-12-14T13:34:48.957Z,59.20
2018-12-14T13:37:18.021Z,58.97
2018-12-14T13:39:46.897Z,58.96
2018-12-14T13:42:16.103Z,59.19
2018-12-14T13:44:46.667Z,59.35
2018-12-14T13:47:15.718Z,59.65
2018-12-14T13:49:44.566Z,60.08
2018-12-14T13:52:13.520Z,59.94
2018-12-14T13:54:42.175Z,59.78
2018-12-14T13:57:11.023Z,59.45
2018-12-14T13:59:41.112Z,59.80
2018-12-14T14:02:09.844Z,60.46
2018-12-14T14:04:38.596Z,60.60
2018-12-14T14:07:07.988Z,60.00
2018-12-14T14:09:36.854Z,60.37
2018-12-14T14:12:05.524Z,60.32
2018-12-14T14:14:34.460Z,60.61
2018-12-14T14:17:03.378Z,61.67
2018-12-14T14:19:32.284Z,60.86
2018-12-14T14:22:01.047Z,61.79
2018-12-14T14:24:29.692Z,61.85
2018-12-14T14:26:59.112Z,61.64
2018-12-14T14:29:28.046Z,62.00
2018-12-14T14:31:57.102Z,61.49
2018-12-14T14:34:25.807Z,61.78
2018-12-14T14:36:54.702Z,62.16
2018-12-14T14:39:24.815Z,62.92
2018-12-14T14:41:53.712Z,63.33
2018-12-14T14:44:22.537Z,63.37
2018-12-14T14:46:51.231Z,62.75
2018-12-14T14:49:19.951Z,63.38
2018-12-14T14:51:49.756Z,62.79
2018-12-14T14:54:18.601Z,63.44
2018-12-14T14:56:47.291Z,63.55
2018-12-14T14:59:16.090Z,63.60
2018-12-14T15:01:44.973Z,63.70
2018-12-14T15:04:13.808Z,64.00
2018-12-14T15:06:42.639Z,64.07
2018-12-14T15:09:11.705Z,63.97
2018-12-14T15:11:40.453Z,63.89
2018-12-14T15:14:09.288Z,64.45
2018-12-14T15:16:38.018Z,63.94
2018-12-14T15:19:06.719Z,64.30
2018-12-14T15:21:35.491Z,64.16
2018-12-14T15:24:04.180Z,64.13
2018-12-14T15:26:32.863Z,64.26
2018-12-14T15:29:01.738Z,64.71
2018-12-14T15:31:30.994Z,64.34
2018-12-14T15:33:59.861Z,63.80
2018-12-14T15:36:28.684Z,63.49
2018-12-14T15:38:57.331Z,64.06
2018-12-14T15:41:26.267Z,64.19
2018-12-14T15:43:55.156Z,64.19
2018-12-14T15:46:23.900Z,63.84
2018-12-14T15:48:52.699Z,64.27
2018-12-14T15:51:23.079Z,63.91
2018-12-14T15:53:51.749Z,63.91
2018-12-14T15:56:20.515Z,64.14
2018-12-14T15:58:49.273Z,64.50
2018-12-14T16:01:18.163Z,64.86
2018-12-14T16:03:46.847Z,64.40
2018-12-14T16:06:15.637Z,64.55
2018-12-14T16:08:44.902Z,65.10
2018-12-14T16:11:14.530Z,64.99
2018-12-14T16:13:43.516Z,65.04
2018-12-14T16:16:12.214Z,64.88
2018-12-14T16:18:41.025Z,65.55
2018-12-14T16:21:10.503Z,65.27
2018-12-14T16:23:39.240Z,65.31
2018-12-14T16:26:08.274Z,64.97
2018-12-14T16:28:37.250Z,65.00
2018-12-14T16:31:06.100Z,65.00
2018-12-14T16:33:34.808Z,65.00
2018-12-14T16:36:03.774Z,65.00
2018-12-14T16:38:32.562Z,65.21
2018-12-14T16:41:01.461Z,65.15
2018-12-14T16:43:30.380Z,64.75
2018-12-14T16:45:59.151Z,65.99
2018-12-14T16:48:30.007Z,65.64
2018-12-14T16:51:00.297Z,65.53
2018-12-14T16:53:31.080Z,65.22
2018-12-14T16:55:59.966Z,65.68
2018-12-14T16:58:28.849Z,65.72
2018-12-14T17:00:57.602Z,65.89
2018-12-14T17:03:27.315Z,65.38
2018-12-14T17:05:56.237Z,65.54
2018-12-14T17:08:24.909Z,65.52
2018-12-14T17:10:53.663Z,65.75
2018-12-14T17:13:22.535Z,66.29
2018-12-14T17:15:51.299Z,65.79
2018-12-14T17:18:20.059Z,65.83
2018-12-14T17:20:48.952Z,65.82
2018-12-14T17:23:17.739Z,66.16
2018-12-14T17:25:46.601Z,65.81
2018-12-14T17:28:15.485Z,65.89
2018-12-14T17:30:44.127Z,66.68
2018-12-14T17:33:13.115Z,66.31
2018-12-14T17:35:42.776Z,66.53
2018-12-14T17:38:11.690Z,67.11
2018-12-14T17:40:40.489Z,67.05
2018-12-14T17:43:09.288Z,67.31
2018-12-14T17:45:39.906Z,66.87
2018-12-14T17:48:09.074Z,66.99
2018-12-14T17:50:38.044Z,67.10
2018-12-14T17:53:06.786Z,66.96
2018-12-14T17:55:35.507Z,66.36
2018-12-14T17:58:04.403Z,66.75
2018-12-14T18:00:33.392Z,67.09
2018-12-14T18:03:02.257Z,67.10
2018-12-14T18:05:31.324Z,67.09
2018-12-14T18:08:00.201Z,67.81
2018-12-14T18:10:29.063Z,68.08
2018-12-14T18:12:57.826Z,68.29
2018-12-14T18:15:27.537Z,67.60
2018-12-14T18:17:56.368Z,67.62
2018-12-14T18:20:25.411Z,68.48
2018-12-14T18:22:54.309Z,68.03
2018-12-14T18:25:23.379Z,68.35
2018-12-14T18:27:52.248Z,68.36
2018-12-14T18:30:20.964Z,68.22
2018-12-14T18:32:49.645Z,67.72
2018-12-14T18:35:18.424Z,68.03
2018-12-14T18:37:47.143Z,68.59
2018-12-14T18:40:15.906Z,68.67
2018-12-14T18:42:44.720Z,67.99
2018-12-14T18:45:13.511Z,68.33
2018-12-14T18:47:43.196Z,68.31
2018-12-14T18:50:12.007Z,69.20
2018-12-14T18:52:40.691Z,68.76
2018-12-14T18:55:09.630Z,69.01
2018-12-14T18:57:38.470Z,68.70
2018-12-14T19:00:09.418Z,69.19
2018-12-14T19:02:38.314Z,69.23
2018-12-14T19:05:07.577Z,69.37
2018-12-14T19:07:36.300Z,69.44
2018-12-14T19:10:05.920Z,69.41
2018-12-14T19:12:35.386Z,68.90
2018-12-14T19:15:04.521Z,69.39
2018-12-14T19:17:33.399Z,69.96
2018-12-14T19:20:02.291Z,69.53
2018-12-14T19:22:31.080Z,69.80
2018-12-14T19:24:59.839Z,69.52
2018-12-14T19:27:29.728Z,69.21
2018-12-14T19:29:58.557Z,68.94
2018-12-14T19:32:29.775Z,69.04
2018-12-14T19:34:58.913Z,68.99
2018-12-14T19:37:27.603Z,69.02
2018-12-14T19:39:56.350Z,68.57
2018-12-14T19:42:25.247Z,68.69
2018-12-14T19:44:54.712Z,68.26
2018-12-14T19:47:25.018Z,68.36
2018-12-14T19:49:55.213Z,68.56
2018-12-14T19:52:24.003Z,69.53
2018-12-14T19:54:52.704Z,69.17
2018-12-14T19:57:21.547Z,68.44
2018-12-14T19:59:50.244Z,68.28
2018-12-14T20:02:19.813Z,68.58
2018-12-14T20:04:48.902Z,68.43
2018-12-14T20:07:17.704Z,68.45
2018-12-14T20:09:48.288Z,68.19
2018-12-14T20:12:17.280Z,68.45
2018-12-14T20:14:46.736Z,68.00
2018-12-14T20:17:15.580Z,67.86
2018-12-14T20:19:44.395Z,68.34
2018-12-14T20:22:13.189Z,68.61
2018-12-14T20:24:41.818Z,67.97
2018-12-14T20:27:10.709Z,68.24
2018-12-14T20:29:39.391Z,67.91
2018-12-14T20:32:08.189Z,68.38
2018-12-14T20:34:36.935Z,68.22
2018-12-14T20:37:05.757Z,67.78
2018-12-14T20:39:34.579Z,68.17
2018-12-14T20:42:03.693Z,67.28
2018-12-14T20:44:32.486Z,67.30
2018-12-14T20:47:01.211Z,67.14
2018-12-14T20:49:30.176Z,67.26
2018-12-14T20:51:59.788Z,67.38
2018-12-14T20:54:28.577Z,67.22
2018-12-14T20:56:59.469Z,67.39
2018-12-14T20:59:28.212Z,67.40
2018-12-14T21:01:57.741Z,67.30
2018-12-14T21:04:26.906Z,67.34
2018-12-14T21:06:56.740Z,67.56
2018-12-14T21:09:25.544Z,67.33
2018-12-14T21:11:55.112Z,67.29
2018-12-14T21:14:25.344Z,66.92
2018-12-14T21:16:54.079Z,66.92
2018-12-14T21:19:24.509Z,67.18
2018-12-14T21:21:53.215Z,67.35
2018-12-14T21:24:23.208Z,66.78
2018-12-14T21:26:54.212Z,66.64
2018-12-14T21:29:24.866Z,66.47
2018-12-14T21:31:53.715Z,66.88
2018-12-14T21:34:22.576Z,66.42
2018-12-14T21:36:51.293Z,66.13
2018-12-14T21:39:19.996Z,66.48
2018-12-14T21:41:48.885Z,66.21
2018-12-14T21:44:17.659Z,66.18
2018-12-14T21:46:46.412Z,66.47
2018-12-14T21:49:15.407Z,66.56
2018-12-14T21:51:44.411Z,66.77
2018-12-14T21:54:13.940Z,66.47
2018-12-14T21:56:42.771Z,66.46
2018-12-14T21:59:12.564Z,66.20
2018-12-14T22:01:42.482Z,65.68
2018-12-14T22:04:11.286Z,65.65
2018-12-14T22:06:39.942Z,66.11
2018-12-14T22:09:10.596Z,65.62
2018-12-14T22:11:39.624Z,66.15
2018-12-14T22:14:10.363Z,65.31
2018-12-14T22:16:39.561Z,65.51
2018-12-14T22:19:09.111Z,65.73
2018-12-14T22:21:37.839Z,65.70
2018-12-14T22:24:06.538Z,65.32
2018-12-14T22:26:35.573Z,65.25
2018-12-14T22:29:05.339Z,65.71
2018-12-14T22:31:34.127Z,65.52
2018-12-14T22:34:02.915Z,65.86
2018-12-14T22:36:31.818Z,65.86
2018-12-14T22:39:00.504Z,65.61
2018-12-14T22:41:29.331Z,65.72
2018-12-14T22:43:58.052Z,65.25
2018-12-14T22:46:27.956Z,64.74
2018-12-14T22:48:56.622Z,65.32
2018-12-14T22:51:25.512Z,65.40
2018-12-14T22:53:54.249Z,65.05
2018-12-14T22:56:23.500Z,65.49
2018-12-14T22:58:52.332Z,65.40
2018-12-14T23:01:21.865Z,65.79
2018-12-14T23:03:50.617Z,65.71
2018-12-14T23:06:20.137Z,65.60
2018-12-14T23:08:51.173Z,65.72
2018-12-14T23:11:19.840Z,64.91
2018-12-14T23:13:49.062Z,66.05
2018-12-14T23:16:17.846Z,65.29
2018-12-14T23:18:47.229Z,65.38
2018-12-14T23:21:16.797Z,64.78
2018-12-14T23:23:45.588Z,64.93
2018-12-14T23:26:14.334Z,65.64
2018-12-14T23:28:43.059Z,65.54
2018-12-14T23:31:11.932Z,65.44
2018-12-14T23:33:40.594Z,64.73
2018-12-14T23:36:09.283Z,64.98
2018-12-14T23:38:37.972Z,65.03
2018-12-14T23:41:06.787Z,65.14
2018-12-14T23:43:35.485Z,65.22
2018-12-14T23:46:04.964Z,64.95
2018-12-14T23:48:33.780Z,64.82
2018-12-14T23:51:03.785Z,64.64
2018-12-14T23:53:33.284Z,64.16
2018-12-14T23:56:03.894Z,64.94
2018-12-14T23:58:33.580Z,64.58
